sensor_id;sensor_type;location;lat;lon;timestamp;P1;durP1;ratioP1;P2;durP2;ratioP2
76320;SDS011;65132;52.088;5.402;2024-01-25T00:01:33;11.18;;;1.58;;
76320;SDS011;65132;52.088;5.402;2024-01-25T00:03:59;14.23;;;1.83;;
76320;SDS011;65132;52.088;5.402;2024-01-25T00:06:26;7.25;;;0.98;;
76320;SDS011;65132;52.088;5.402;2024-01-25T00:08:52;15.57;;;2.40;;
76320;SDS011;65132;52.088;5.402;2024-01-25T00:11:19;12.02;;;1.70;;
76320;SDS011;65132;52.088;5.402;2024-01-25T00:13:45;14.02;;;1.70;;
76320;SDS011;65132;52.088;5.402;2024-01-25T00:16:11;12.30;;;1.63;;
76320;SDS011;65132;52.088;5.402;2024-01-25T00:18:38;13.05;;;1.90;;
76320;SDS011;65132;52.088;5.402;2024-01-25T00:21:05;11.98;;;1.67;;
76320;SDS011;65132;52.088;5.402;2024-01-25T00:23:32;18.05;;;1.80;;
76320;SDS011;65132;52.088;5.402;2024-01-25T00:25:58;13.57;;;2.17;;
76320;SDS011;65132;52.088;5.402;2024-01-25T00:28:25;12.63;;;1.73;;
76320;SDS011;65132;52.088;5.402;2024-01-25T00:30:52;13.00;;;1.45;;
76320;SDS011;65132;52.088;5.402;2024-01-25T00:33:18;13.13;;;1.40;;
76320;SDS011;65132;52.088;5.402;2024-01-25T00:35:45;16.20;;;1.85;;
76320;SDS011;65132;52.088;5.402;2024-01-25T00:38:14;16.52;;;2.53;;
76320;SDS011;65132;52.088;5.402;2024-01-25T00:40:40;11.15;;;1.80;;
76320;SDS011;65132;52.088;5.402;2024-01-25T00:43:07;12.82;;;2.72;;
76320;SDS011;65132;52.088;5.402;2024-01-25T00:45:34;15.48;;;2.08;;
76320;SDS011;65132;52.088;5.402;2024-01-25T00:48:00;11.52;;;1.85;;
76320;SDS011;65132;52.088;5.402;2024-01-25T00:50:27;14.00;;;1.88;;
76320;SDS011;65132;52.088;5.402;2024-01-25T00:52:53;15.63;;;1.85;;
76320;SDS011;65132;52.088;5.402;2024-01-25T00:55:20;16.08;;;2.88;;
76320;SDS011;65132;52.088;5.402;2024-01-25T00:57:48;11.57;;;2.15;;
76320;SDS011;65132;52.088;5.402;2024-01-25T01:00:16;13.00;;;2.08;;
76320;SDS011;65132;52.088;5.402;2024-01-25T01:02:43;11.20;;;1.63;;
76320;SDS011;65132;52.088;5.402;2024-01-25T01:05:10;21.05;;;2.03;;
76320;SDS011;65132;52.088;5.402;2024-01-25T01:07:37;14.10;;;2.15;;
76320;SDS011;65132;52.088;5.402;2024-01-25T01:10:03;16.90;;;2.45;;
76320;SDS011;65132;52.088;5.402;2024-01-25T01:12:30;14.25;;;2.00;;
76320;SDS011;65132;52.088;5.402;2024-01-25T01:14:56;14.27;;;2.35;;
76320;SDS011;65132;52.088;5.402;2024-01-25T01:17:23;11.73;;;1.30;;
76320;SDS011;65132;52.088;5.402;2024-01-25T01:19:49;11.50;;;2.47;;
76320;SDS011;65132;52.088;5.402;2024-01-25T01:22:16;10.98;;;1.42;;
76320;SDS011;65132;52.088;5.402;2024-01-25T01:24:42;11.27;;;1.80;;
76320;SDS011;65132;52.088;5.402;2024-01-25T01:27:09;13.32;;;1.83;;
76320;SDS011;65132;52.088;5.402;2024-01-25T01:29:35;6.10;;;1.08;;
76320;SDS011;65132;52.088;5.402;2024-01-25T01:32:01;18.77;;;2.20;;
76320;SDS011;65132;52.088;5.402;2024-01-25T01:34:28;13.88;;;1.73;;
76320;SDS011;65132;52.088;5.402;2024-01-25T01:36:54;10.23;;;1.80;;
76320;SDS011;65132;52.088;5.402;2024-01-25T01:39:21;16.00;;;2.60;;
76320;SDS011;65132;52.088;5.402;2024-01-25T01:41:47;15.73;;;2.35;;
76320;SDS011;65132;52.088;5.402;2024-01-25T01:44:15;13.15;;;1.52;;
76320;SDS011;65132;52.088;5.402;2024-01-25T01:46:41;9.32;;;1.75;;
76320;SDS011;65132;52.088;5.402;2024-01-25T01:49:07;10.43;;;1.95;;
76320;SDS011;65132;52.088;5.402;2024-01-25T01:51:34;14.18;;;2.15;;
76320;SDS011;65132;52.088;5.402;2024-01-25T01:54:01;10.18;;;1.25;;
76320;SDS011;65132;52.088;5.402;2024-01-25T01:56:28;10.80;;;2.08;;
76320;SDS011;65132;52.088;5.402;2024-01-25T01:58:56;16.10;;;2.38;;
76320;SDS011;65132;52.088;5.402;2024-01-25T02:01:27;17.55;;;2.38;;
76320;SDS011;65132;52.088;5.402;2024-01-25T02:03:53;16.38;;;2.28;;
76320;SDS011;65132;52.088;5.402;2024-01-25T02:06:20;7.43;;;1.30;;
76320;SDS011;65132;52.088;5.402;2024-01-25T02:08:50;16.40;;;1.73;;
76320;SDS011;65132;52.088;5.402;2024-01-25T02:11:17;9.68;;;1.00;;
76320;SDS011;65132;52.088;5.402;2024-01-25T02:13:43;17.38;;;1.73;;
76320;SDS011;65132;52.088;5.402;2024-01-25T02:16:10;11.70;;;2.85;;
76320;SDS011;65132;52.088;5.402;2024-01-25T02:18:36;15.27;;;2.17;;
76320;SDS011;65132;52.088;5.402;2024-01-25T02:21:04;13.73;;;1.80;;
76320;SDS011;65132;52.088;5.402;2024-01-25T02:23:30;15.95;;;1.80;;
76320;SDS011;65132;52.088;5.402;2024-01-25T02:25:57;14.13;;;2.15;;
76320;SDS011;65132;52.088;5.402;2024-01-25T02:28:23;15.23;;;2.50;;
76320;SDS011;65132;52.088;5.402;2024-01-25T02:30:54;12.15;;;1.52;;
76320;SDS011;65132;52.088;5.402;2024-01-25T02:33:21;12.40;;;1.90;;
76320;SDS011;65132;52.088;5.402;2024-01-25T02:35:49;13.70;;;1.52;;
76320;SDS011;65132;52.088;5.402;2024-01-25T02:38:16;19.15;;;2.03;;
76320;SDS011;65132;52.088;5.402;2024-01-25T02:40:45;10.02;;;1.40;;
76320;SDS011;65132;52.088;5.402;2024-01-25T02:43:11;7.47;;;1.40;;
76320;SDS011;65132;52.088;5.402;2024-01-25T02:45:39;12.23;;;2.05;;
76320;SDS011;65132;52.088;5.402;2024-01-25T02:48:06;16.80;;;1.83;;
76320;SDS011;65132;52.088;5.402;2024-01-25T02:50:32;16.23;;;1.98;;
76320;SDS011;65132;52.088;5.402;2024-01-25T02:52:59;15.30;;;1.90;;
76320;SDS011;65132;52.088;5.402;2024-01-25T02:55:25;15.00;;;1.50;;
76320;SDS011;65132;52.088;5.402;2024-01-25T02:57:52;9.60;;;1.70;;
76320;SDS011;65132;52.088;5.402;2024-01-25T03:00:18;5.68;;;1.33;;
76320;SDS011;65132;52.088;5.402;2024-01-25T03:02:46;14.68;;;1.92;;
76320;SDS011;65132;52.088;5.402;2024-01-25T03:05:12;9.93;;;1.30;;
76320;SDS011;65132;52.088;5.402;2024-01-25T03:07:39;10.98;;;1.90;;
76320;SDS011;65132;52.088;5.402;2024-01-25T03:10:08;11.52;;;1.77;;
76320;SDS011;65132;52.088;5.402;2024-01-25T03:12:34;14.88;;;2.22;;
76320;SDS011;65132;52.088;5.402;2024-01-25T03:15:01;17.08;;;1.92;;
76320;SDS011;65132;52.088;5.402;2024-01-25T03:17:28;12.27;;;1.90;;
76320;SDS011;65132;52.088;5.402;2024-01-25T03:19:55;12.10;;;1.73;;
76320;SDS011;65132;52.088;5.402;2024-01-25T03:22:21;12.73;;;1.67;;
76320;SDS011;65132;52.088;5.402;2024-01-25T03:24:48;12.50;;;2.03;;
76320;SDS011;65132;52.088;5.402;2024-01-25T03:27:14;10.32;;;1.80;;
76320;SDS011;65132;52.088;5.402;2024-01-25T03:29:41;15.60;;;1.40;;
76320;SDS011;65132;52.088;5.402;2024-01-25T03:32:08;8.60;;;1.92;;
76320;SDS011;65132;52.088;5.402;2024-01-25T03:34:34;10.73;;;1.75;;
76320;SDS011;65132;52.088;5.402;2024-01-25T03:37:00;12.38;;;1.52;;
76320;SDS011;65132;52.088;5.402;2024-01-25T03:39:27;13.90;;;1.90;;
76320;SDS011;65132;52.088;5.402;2024-01-25T03:41:53;10.77;;;1.40;;
76320;SDS011;65132;52.088;5.402;2024-01-25T03:44:19;15.38;;;2.00;;
76320;SDS011;65132;52.088;5.402;2024-01-25T03:46:46;15.15;;;1.65;;
76320;SDS011;65132;52.088;5.402;2024-01-25T03:49:12;16.05;;;2.60;;
76320;SDS011;65132;52.088;5.402;2024-01-25T03:51:39;12.68;;;1.77;;
76320;SDS011;65132;52.088;5.402;2024-01-25T03:54:05;11.40;;;1.73;;
76320;SDS011;65132;52.088;5.402;2024-01-25T03:56:34;15.63;;;2.08;;
76320;SDS011;65132;52.088;5.402;2024-01-25T03:59:00;12.25;;;2.15;;
76320;SDS011;65132;52.088;5.402;2024-01-25T04:01:27;11.23;;;1.67;;
76320;SDS011;65132;52.088;5.402;2024-01-25T04:03:57;15.45;;;1.85;;
76320;SDS011;65132;52.088;5.402;2024-01-25T04:06:24;9.18;;;2.22;;
76320;SDS011;65132;52.088;5.402;2024-01-25T04:08:53;12.38;;;1.65;;
76320;SDS011;65132;52.088;5.402;2024-01-25T04:11:19;12.85;;;1.77;;
76320;SDS011;65132;52.088;5.402;2024-01-25T04:13:45;16.90;;;2.15;;
76320;SDS011;65132;52.088;5.402;2024-01-25T04:16:13;12.77;;;1.92;;
76320;SDS011;65132;52.088;5.402;2024-01-25T04:18:40;14.32;;;1.60;;
76320;SDS011;65132;52.088;5.402;2024-01-25T04:21:06;11.20;;;1.30;;
76320;SDS011;65132;52.088;5.402;2024-01-25T04:23:33;10.02;;;1.45;;
76320;SDS011;65132;52.088;5.402;2024-01-25T04:25:59;11.38;;;1.80;;
76320;SDS011;65132;52.088;5.402;2024-01-25T04:28:26;14.45;;;1.58;;
76320;SDS011;65132;52.088;5.402;2024-01-25T04:30:52;12.23;;;1.48;;
76320;SDS011;65132;52.088;5.402;2024-01-25T04:33:19;14.25;;;1.90;;
76320;SDS011;65132;52.088;5.402;2024-01-25T04:35:45;14.90;;;2.00;;
76320;SDS011;65132;52.088;5.402;2024-01-25T04:38:12;15.77;;;2.30;;
76320;SDS011;65132;52.088;5.402;2024-01-25T04:40:38;8.35;;;1.55;;
76320;SDS011;65132;52.088;5.402;2024-01-25T04:43:04;15.93;;;1.48;;
76320;SDS011;65132;52.088;5.402;2024-01-25T04:45:31;17.08;;;2.17;;
76320;SDS011;65132;52.088;5.402;2024-01-25T04:47:57;6.80;;;1.13;;
76320;SDS011;65132;52.088;5.402;2024-01-25T04:50:24;11.85;;;1.80;;
76320;SDS011;65132;52.088;5.402;2024-01-25T04:52:50;12.70;;;2.10;;
76320;SDS011;65132;52.088;5.402;2024-01-25T04:55:17;8.48;;;2.33;;
76320;SDS011;65132;52.088;5.402;2024-01-25T04:57:44;16.08;;;1.85;;
76320;SDS011;65132;52.088;5.402;2024-01-25T05:00:10;18.25;;;1.80;;
76320;SDS011;65132;52.088;5.402;2024-01-25T05:02:37;12.70;;;1.90;;
76320;SDS011;65132;52.088;5.402;2024-01-25T05:05:03;15.25;;;1.52;;
76320;SDS011;65132;52.088;5.402;2024-01-25T05:07:30;14.57;;;2.08;;
76320;SDS011;65132;52.088;5.402;2024-01-25T05:09:56;9.38;;;2.10;;
76320;SDS011;65132;52.088;5.402;2024-01-25T05:12:23;11.80;;;1.85;;
76320;SDS011;65132;52.088;5.402;2024-01-25T05:14:50;8.48;;;1.52;;
76320;SDS011;65132;52.088;5.402;2024-01-25T05:17:16;13.40;;;1.65;;
76320;SDS011;65132;52.088;5.402;2024-01-25T05:19:43;17.58;;;2.05;;
76320;SDS011;65132;52.088;5.402;2024-01-25T05:22:09;12.75;;;1.92;;
76320;SDS011;65132;52.088;5.402;2024-01-25T05:24:40;13.70;;;1.92;;
76320;SDS011;65132;52.088;5.402;2024-01-25T05:27:07;16.95;;;2.25;;
76320;SDS011;65132;52.088;5.402;2024-01-25T05:29:33;12.95;;;1.58;;
76320;SDS011;65132;52.088;5.402;2024-01-25T05:31:59;13.15;;;1.90;;
76320;SDS011;65132;52.088;5.402;2024-01-25T05:34:27;11.98;;;1.50;;
76320;SDS011;65132;52.088;5.402;2024-01-25T05:36:53;12.43;;;1.83;;
76320;SDS011;65132;52.088;5.402;2024-01-25T05:39:20;13.63;;;2.35;;
76320;SDS011;65132;52.088;5.402;2024-01-25T05:41:46;12.57;;;1.58;;
76320;SDS011;65132;52.088;5.402;2024-01-25T05:44:12;15.82;;;2.08;;
76320;SDS011;65132;52.088;5.402;2024-01-25T05:46:39;10.70;;;1.98;;
76320;SDS011;65132;52.088;5.402;2024-01-25T05:49:05;15.88;;;2.10;;
76320;SDS011;65132;52.088;5.402;2024-01-25T05:51:32;13.07;;;2.13;;
76320;SDS011;65132;52.088;5.402;2024-01-25T05:53:58;12.43;;;2.60;;
76320;SDS011;65132;52.088;5.402;2024-01-25T05:56:24;15.63;;;1.85;;
76320;SDS011;65132;52.088;5.402;2024-01-25T05:58:51;13.73;;;1.80;;
76320;SDS011;65132;52.088;5.402;2024-01-25T06:01:17;16.23;;;1.40;;
76320;SDS011;65132;52.088;5.402;2024-01-25T06:03:43;13.50;;;1.88;;
76320;SDS011;65132;52.088;5.402;2024-01-25T06:06:10;10.68;;;2.13;;
76320;SDS011;65132;52.088;5.402;2024-01-25T06:08:36;13.05;;;1.90;;
76320;SDS011;65132;52.088;5.402;2024-01-25T06:11:03;14.43;;;2.15;;
76320;SDS011;65132;52.088;5.402;2024-01-25T06:13:30;10.68;;;1.95;;
76320;SDS011;65132;52.088;5.402;2024-01-25T06:15:57;12.60;;;2.10;;
76320;SDS011;65132;52.088;5.402;2024-01-25T06:21:34;12.02;;;1.98;;
76320;SDS011;65132;52.088;5.402;2024-01-25T06:24:01;16.10;;;2.10;;
76320;SDS011;65132;52.088;5.402;2024-01-25T06:26:27;11.15;;;1.45;;
76320;SDS011;65132;52.088;5.402;2024-01-25T06:28:54;11.68;;;1.63;;
76320;SDS011;65132;52.088;5.402;2024-01-25T06:31:23;17.20;;;1.77;;
76320;SDS011;65132;52.088;5.402;2024-01-25T06:33:50;9.82;;;1.88;;
76320;SDS011;65132;52.088;5.402;2024-01-25T06:36:17;14.75;;;2.10;;
76320;SDS011;65132;52.088;5.402;2024-01-25T06:38:48;13.07;;;1.88;;
76320;SDS011;65132;52.088;5.402;2024-01-25T06:41:16;12.25;;;2.13;;
76320;SDS011;65132;52.088;5.402;2024-01-25T06:43:43;9.88;;;2.30;;
76320;SDS011;65132;52.088;5.402;2024-01-25T06:46:09;11.15;;;1.92;;
76320;SDS011;65132;52.088;5.402;2024-01-25T06:48:35;15.85;;;2.17;;
76320;SDS011;65132;52.088;5.402;2024-01-25T06:51:02;9.30;;;1.70;;
76320;SDS011;65132;52.088;5.402;2024-01-25T06:53:29;12.38;;;2.10;;
76320;SDS011;65132;52.088;5.402;2024-01-25T06:55:58;15.00;;;1.98;;
76320;SDS011;65132;52.088;5.402;2024-01-25T06:58:43;11.93;;;2.63;;
76320;SDS011;65132;52.088;5.402;2024-01-25T07:01:15;7.25;;;2.35;;
76320;SDS011;65132;52.088;5.402;2024-01-25T07:04:09;9.60;;;3.10;;
76320;SDS011;65132;52.088;5.402;2024-01-25T07:06:39;13.82;;;3.35;;
76320;SDS011;65132;52.088;5.402;2024-01-25T07:09:27;14.65;;;3.42;;
76320;SDS011;65132;52.088;5.402;2024-01-25T07:11:54;13.40;;;3.38;;
76320;SDS011;65132;52.088;5.402;2024-01-25T07:14:34;20.20;;;3.88;;
76320;SDS011;65132;52.088;5.402;2024-01-25T07:17:20;13.38;;;3.35;;
76320;SDS011;65132;52.088;5.402;2024-01-25T07:19:46;14.63;;;3.10;;
76320;SDS011;65132;52.088;5.402;2024-01-25T07:22:13;18.20;;;4.72;;
76320;SDS011;65132;52.088;5.402;2024-01-25T07:24:45;16.55;;;4.20;;
76320;SDS011;65132;52.088;5.402;2024-01-25T07:27:27;13.75;;;3.80;;
76320;SDS011;65132;52.088;5.402;2024-01-25T07:29:53;14.25;;;3.17;;
76320;SDS011;65132;52.088;5.402;2024-01-25T07:32:20;15.57;;;3.97;;
76320;SDS011;65132;52.088;5.402;2024-01-25T07:34:47;9.77;;;3.20;;
76320;SDS011;65132;52.088;5.402;2024-01-25T07:37:13;15.27;;;3.67;;
76320;SDS011;65132;52.088;5.402;2024-01-25T07:39:40;13.82;;;3.15;;
76320;SDS011;65132;52.088;5.402;2024-01-25T07:42:06;14.40;;;3.70;;
76320;SDS011;65132;52.088;5.402;2024-01-25T07:44:33;10.48;;;3.00;;
76320;SDS011;65132;52.088;5.402;2024-01-25T07:46:59;11.85;;;3.25;;
76320;SDS011;65132;52.088;5.402;2024-01-25T07:49:26;12.48;;;2.45;;
76320;SDS011;65132;52.088;5.402;2024-01-25T07:51:53;14.30;;;2.88;;
76320;SDS011;65132;52.088;5.402;2024-01-25T07:54:22;13.13;;;3.35;;
76320;SDS011;65132;52.088;5.402;2024-01-25T07:56:48;17.92;;;3.00;;
76320;SDS011;65132;52.088;5.402;2024-01-25T07:59:15;15.13;;;3.45;;
76320;SDS011;65132;52.088;5.402;2024-01-25T08:01:41;16.25;;;2.85;;
76320;SDS011;65132;52.088;5.402;2024-01-25T08:04:08;8.90;;;2.55;;
76320;SDS011;65132;52.088;5.402;2024-01-25T08:06:34;17.02;;;3.08;;
76320;SDS011;65132;52.088;5.402;2024-01-25T08:09:01;21.27;;;2.70;;
76320;SDS011;65132;52.088;5.402;2024-01-25T08:11:27;15.20;;;3.10;;
76320;SDS011;65132;52.088;5.402;2024-01-25T08:13:53;17.23;;;2.97;;
76320;SDS011;65132;52.088;5.402;2024-01-25T08:16:21;16.45;;;3.38;;
76320;SDS011;65132;52.088;5.402;2024-01-25T08:18:48;14.25;;;2.55;;
76320;SDS011;65132;52.088;5.402;2024-01-25T08:21:15;18.45;;;3.05;;
76320;SDS011;65132;52.088;5.402;2024-01-25T08:23:44;12.32;;;3.33;;
76320;SDS011;65132;52.088;5.402;2024-01-25T08:26:10;14.65;;;2.95;;
76320;SDS011;65132;52.088;5.402;2024-01-25T08:28:38;23.33;;;3.60;;
76320;SDS011;65132;52.088;5.402;2024-01-25T08:31:06;17.25;;;2.60;;
76320;SDS011;65132;52.088;5.402;2024-01-25T08:33:33;17.77;;;2.55;;
76320;SDS011;65132;52.088;5.402;2024-01-25T08:36:00;12.25;;;2.70;;
76320;SDS011;65132;52.088;5.402;2024-01-25T08:38:27;16.90;;;2.78;;
76320;SDS011;65132;52.088;5.402;2024-01-25T08:40:54;12.07;;;2.33;;
76320;SDS011;65132;52.088;5.402;2024-01-25T08:43:20;11.43;;;3.08;;
76320;SDS011;65132;52.088;5.402;2024-01-25T08:45:47;13.93;;;3.45;;
76320;SDS011;65132;52.088;5.402;2024-01-25T08:48:13;11.65;;;2.47;;
76320;SDS011;65132;52.088;5.402;2024-01-25T08:50:40;14.15;;;2.85;;
76320;SDS011;65132;52.088;5.402;2024-01-25T08:53:07;12.90;;;2.60;;
76320;SDS011;65132;52.088;5.402;2024-01-25T08:55:33;15.15;;;2.83;;
76320;SDS011;65132;52.088;5.402;2024-01-25T08:58:00;14.68;;;2.40;;
76320;SDS011;65132;52.088;5.402;2024-01-25T09:00:27;20.08;;;2.75;;
76320;SDS011;65132;52.088;5.402;2024-01-25T09:02:53;13.35;;;2.80;;
76320;SDS011;65132;52.088;5.402;2024-01-25T09:05:19;17.80;;;3.30;;
76320;SDS011;65132;52.088;5.402;2024-01-25T09:07:46;14.10;;;3.25;;
76320;SDS011;65132;52.088;5.402;2024-01-25T09:10:12;16.48;;;2.70;;
76320;SDS011;65132;52.088;5.402;2024-01-25T09:12:39;11.23;;;2.50;;
76320;SDS011;65132;52.088;5.402;2024-01-25T09:15:06;17.38;;;3.33;;
76320;SDS011;65132;52.088;5.402;2024-01-25T09:17:33;12.80;;;3.25;;
76320;SDS011;65132;52.088;5.402;2024-01-25T09:20:00;15.30;;;2.75;;
76320;SDS011;65132;52.088;5.402;2024-01-25T09:22:27;16.35;;;2.72;;
76320;SDS011;65132;52.088;5.402;2024-01-25T09:24:54;14.05;;;2.55;;
76320;SDS011;65132;52.088;5.402;2024-01-25T09:27:21;15.25;;;2.58;;
76320;SDS011;65132;52.088;5.402;2024-01-25T09:29:50;15.55;;;2.67;;
76320;SDS011;65132;52.088;5.402;2024-01-25T09:32:17;15.18;;;2.58;;
76320;SDS011;65132;52.088;5.402;2024-01-25T09:34:46;20.52;;;3.28;;
76320;SDS011;65132;52.088;5.402;2024-01-25T09:37:13;13.95;;;2.58;;
76320;SDS011;65132;52.088;5.402;2024-01-25T09:39:40;21.00;;;3.35;;
76320;SDS011;65132;52.088;5.402;2024-01-25T09:42:07;27.67;;;2.92;;
76320;SDS011;65132;52.088;5.402;2024-01-25T09:44:35;14.95;;;3.65;;
76320;SDS011;65132;52.088;5.402;2024-01-25T09:47:04;18.85;;;3.38;;
76320;SDS011;65132;52.088;5.402;2024-01-25T09:49:31;16.98;;;3.60;;
76320;SDS011;65132;52.088;5.402;2024-01-25T09:51:58;15.35;;;3.47;;
76320;SDS011;65132;52.088;5.402;2024-01-25T09:54:26;18.40;;;3.00;;
76320;SDS011;65132;52.088;5.402;2024-01-25T09:56:56;14.60;;;3.80;;
76320;SDS011;65132;52.088;5.402;2024-01-25T09:59:22;12.07;;;2.35;;
76320;SDS011;65132;52.088;5.402;2024-01-25T10:01:48;19.05;;;3.25;;
76320;SDS011;65132;52.088;5.402;2024-01-25T10:04:15;16.88;;;3.45;;
76320;SDS011;65132;52.088;5.402;2024-01-25T10:06:43;18.02;;;4.30;;
76320;SDS011;65132;52.088;5.402;2024-01-25T10:09:09;16.98;;;2.97;;
76320;SDS011;65132;52.088;5.402;2024-01-25T10:11:36;18.70;;;3.72;;
76320;SDS011;65132;52.088;5.402;2024-01-25T10:14:10;14.65;;;3.50;;
76320;SDS011;65132;52.088;5.402;2024-01-25T10:16:37;18.10;;;2.92;;
76320;SDS011;65132;52.088;5.402;2024-01-25T10:19:06;17.58;;;3.25;;
76320;SDS011;65132;52.088;5.402;2024-01-25T10:21:35;16.77;;;3.78;;
76320;SDS011;65132;52.088;5.402;2024-01-25T10:24:02;21.10;;;3.65;;
76320;SDS011;65132;52.088;5.402;2024-01-25T10:26:29;14.38;;;3.53;;
76320;SDS011;65132;52.088;5.402;2024-01-25T10:28:55;12.43;;;2.97;;
76320;SDS011;65132;52.088;5.402;2024-01-25T10:31:28;14.05;;;3.20;;
76320;SDS011;65132;52.088;5.402;2024-01-25T10:33:56;16.10;;;3.58;;
76320;SDS011;65132;52.088;5.402;2024-01-25T10:36:24;11.30;;;3.05;;
76320;SDS011;65132;52.088;5.402;2024-01-25T10:38:52;19.25;;;3.08;;
76320;SDS011;65132;52.088;5.402;2024-01-25T10:41:20;14.75;;;2.42;;
76320;SDS011;65132;52.088;5.402;2024-01-25T10:43:48;18.50;;;3.55;;
76320;SDS011;65132;52.088;5.402;2024-01-25T10:46:17;14.35;;;3.58;;
76320;SDS011;65132;52.088;5.402;2024-01-25T10:48:45;15.80;;;3.72;;
76320;SDS011;65132;52.088;5.402;2024-01-25T10:51:12;24.30;;;4.30;;
76320;SDS011;65132;52.088;5.402;2024-01-25T10:53:40;12.85;;;3.03;;
76320;SDS011;65132;52.088;5.402;2024-01-25T10:56:08;22.45;;;4.22;;
76320;SDS011;65132;52.088;5.402;2024-01-25T10:58:40;20.75;;;3.53;;
76320;SDS011;65132;52.088;5.402;2024-01-25T11:01:09;19.17;;;3.88;;
76320;SDS011;65132;52.088;5.402;2024-01-25T11:03:40;20.95;;;4.43;;
76320;SDS011;65132;52.088;5.402;2024-01-25T11:09:03;15.73;;;3.50;;
76320;SDS011;65132;52.088;5.402;2024-01-25T11:11:29;15.75;;;3.05;;
76320;SDS011;65132;52.088;5.402;2024-01-25T11:13:57;19.15;;;3.63;;
76320;SDS011;65132;52.088;5.402;2024-01-25T11:16:31;14.32;;;3.90;;
76320;SDS011;65132;52.088;5.402;2024-01-25T11:18:58;25.40;;;3.75;;
76320;SDS011;65132;52.088;5.402;2024-01-25T11:21:28;15.00;;;3.88;;
76320;SDS011;65132;52.088;5.402;2024-01-25T11:23:59;17.50;;;3.85;;
76320;SDS011;65132;52.088;5.402;2024-01-25T11:26:25;23.83;;;4.18;;
76320;SDS011;65132;52.088;5.402;2024-01-25T11:28:52;21.30;;;4.18;;
76320;SDS011;65132;52.088;5.402;2024-01-25T11:31:18;19.63;;;4.90;;
76320;SDS011;65132;52.088;5.402;2024-01-25T11:33:45;9.75;;;2.78;;
76320;SDS011;65132;52.088;5.402;2024-01-25T11:36:12;18.90;;;3.58;;
76320;SDS011;65132;52.088;5.402;2024-01-25T11:38:38;14.85;;;4.20;;
76320;SDS011;65132;52.088;5.402;2024-01-25T11:41:04;16.23;;;4.57;;
76320;SDS011;65132;52.088;5.402;2024-01-25T11:43:31;15.32;;;4.35;;
76320;SDS011;65132;52.088;5.402;2024-01-25T11:45:57;18.75;;;3.97;;
76320;SDS011;65132;52.088;5.402;2024-01-25T11:48:26;19.08;;;4.32;;
76320;SDS011;65132;52.088;5.402;2024-01-25T11:50:53;15.75;;;3.38;;
76320;SDS011;65132;52.088;5.402;2024-01-25T11:53:19;16.58;;;4.05;;
76320;SDS011;65132;52.088;5.402;2024-01-25T11:55:46;21.65;;;5.53;;
76320;SDS011;65132;52.088;5.402;2024-01-25T11:58:13;16.55;;;4.10;;
76320;SDS011;65132;52.088;5.402;2024-01-25T12:00:40;17.95;;;5.03;;
76320;SDS011;65132;52.088;5.402;2024-01-25T12:03:07;16.13;;;4.75;;
76320;SDS011;65132;52.088;5.402;2024-01-25T12:05:33;23.85;;;4.63;;
76320;SDS011;65132;52.088;5.402;2024-01-25T12:08:00;19.35;;;5.28;;
76320;SDS011;65132;52.088;5.402;2024-01-25T12:10:27;16.88;;;4.30;;
76320;SDS011;65132;52.088;5.402;2024-01-25T12:12:53;22.92;;;4.28;;
76320;SDS011;65132;52.088;5.402;2024-01-25T12:15:21;19.33;;;5.07;;
76320;SDS011;65132;52.088;5.402;2024-01-25T12:17:48;21.73;;;4.05;;
76320;SDS011;65132;52.088;5.402;2024-01-25T12:20:14;22.45;;;4.75;;
76320;SDS011;65132;52.088;5.402;2024-01-25T12:22:42;22.35;;;4.97;;
76320;SDS011;65132;52.088;5.402;2024-01-25T12:25:09;18.08;;;3.72;;
76320;SDS011;65132;52.088;5.402;2024-01-25T12:27:36;22.52;;;4.03;;
76320;SDS011;65132;52.088;5.402;2024-01-25T12:30:02;17.42;;;4.72;;
76320;SDS011;65132;52.088;5.402;2024-01-25T12:32:29;24.27;;;4.63;;
76320;SDS011;65132;52.088;5.402;2024-01-25T12:34:56;16.52;;;4.57;;
76320;SDS011;65132;52.088;5.402;2024-01-25T12:37:23;19.13;;;4.32;;
76320;SDS011;65132;52.088;5.402;2024-01-25T12:39:51;22.08;;;5.35;;
76320;SDS011;65132;52.088;5.402;2024-01-25T12:42:18;22.25;;;5.47;;
76320;SDS011;65132;52.088;5.402;2024-01-25T12:44:45;17.00;;;4.93;;
76320;SDS011;65132;52.088;5.402;2024-01-25T12:47:12;21.92;;;6.40;;
76320;SDS011;65132;52.088;5.402;2024-01-25T12:49:40;13.43;;;4.90;;
76320;SDS011;65132;52.088;5.402;2024-01-25T12:52:08;20.35;;;4.10;;
76320;SDS011;65132;52.088;5.402;2024-01-25T12:54:34;22.20;;;5.30;;
76320;SDS011;65132;52.088;5.402;2024-01-25T12:57:01;16.08;;;4.65;;
76320;SDS011;65132;52.088;5.402;2024-01-25T12:59:28;22.23;;;4.90;;
76320;SDS011;65132;52.088;5.402;2024-01-25T13:01:54;22.45;;;4.90;;
76320;SDS011;65132;52.088;5.402;2024-01-25T13:04:22;18.77;;;5.13;;
76320;SDS011;65132;52.088;5.402;2024-01-25T13:06:48;14.48;;;4.18;;
76320;SDS011;65132;52.088;5.402;2024-01-25T13:09:15;20.02;;;5.45;;
76320;SDS011;65132;52.088;5.402;2024-01-25T13:11:41;17.10;;;4.43;;
76320;SDS011;65132;52.088;5.402;2024-01-25T13:14:08;20.52;;;5.20;;
76320;SDS011;65132;52.088;5.402;2024-01-25T13:16:34;19.15;;;5.50;;
76320;SDS011;65132;52.088;5.402;2024-01-25T13:19:01;21.88;;;5.65;;
76320;SDS011;65132;52.088;5.402;2024-01-25T13:21:27;19.23;;;4.80;;
76320;SDS011;65132;52.088;5.402;2024-01-25T13:23:54;24.15;;;5.22;;
76320;SDS011;65132;52.088;5.402;2024-01-25T13:26:20;20.80;;;5.40;;
76320;SDS011;65132;52.088;5.402;2024-01-25T13:28:47;22.90;;;5.28;;
76320;SDS011;65132;52.088;5.402;2024-01-25T13:31:13;19.70;;;4.78;;
76320;SDS011;65132;52.088;5.402;2024-01-25T13:33:39;18.52;;;6.13;;
76320;SDS011;65132;52.088;5.402;2024-01-25T13:36:07;18.70;;;5.40;;
76320;SDS011;65132;52.088;5.402;2024-01-25T13:38:36;19.77;;;6.10;;
76320;SDS011;65132;52.088;5.402;2024-01-25T13:41:25;23.40;;;4.70;;
76320;SDS011;65132;52.088;5.402;2024-01-25T13:43:59;23.65;;;6.70;;
76320;SDS011;65132;52.088;5.402;2024-01-25T13:49:55;25.85;;;7.45;;
76320;SDS011;65132;52.088;5.402;2024-01-25T13:52:22;28.15;;;6.88;;
76320;SDS011;65132;52.088;5.402;2024-01-25T13:54:51;28.77;;;6.35;;
76320;SDS011;65132;52.088;5.402;2024-01-25T13:57:20;18.85;;;5.93;;
76320;SDS011;65132;52.088;5.402;2024-01-25T14:00:05;21.50;;;5.95;;
76320;SDS011;65132;52.088;5.402;2024-01-25T14:02:54;19.75;;;5.50;;
76320;SDS011;65132;52.088;5.402;2024-01-25T14:05:21;24.50;;;6.80;;
76320;SDS011;65132;52.088;5.402;2024-01-25T14:07:47;18.40;;;6.25;;
76320;SDS011;65132;52.088;5.402;2024-01-25T14:10:34;25.65;;;6.57;;
76320;SDS011;65132;52.088;5.402;2024-01-25T14:13:35;20.55;;;5.53;;
76320;SDS011;65132;52.088;5.402;2024-01-25T14:16:04;23.98;;;6.07;;
76320;SDS011;65132;52.088;5.402;2024-01-25T14:18:37;20.00;;;5.88;;
76320;SDS011;65132;52.088;5.402;2024-01-25T14:21:26;24.42;;;7.85;;
76320;SDS011;65132;52.088;5.402;2024-01-25T14:24:14;27.02;;;7.20;;
76320;SDS011;65132;52.088;5.402;2024-01-25T14:26:43;28.13;;;5.85;;
76320;SDS011;65132;52.088;5.402;2024-01-25T14:29:12;21.88;;;8.85;;
76320;SDS011;65132;52.088;5.402;2024-01-25T14:31:38;31.75;;;7.45;;
76320;SDS011;65132;52.088;5.402;2024-01-25T14:34:06;25.85;;;6.55;;
76320;SDS011;65132;52.088;5.402;2024-01-25T14:36:32;22.30;;;6.90;;
76320;SDS011;65132;52.088;5.402;2024-01-25T14:38:59;29.17;;;10.25;;
76320;SDS011;65132;52.088;5.402;2024-01-25T14:41:25;26.77;;;7.18;;
76320;SDS011;65132;52.088;5.402;2024-01-25T14:43:52;28.73;;;8.05;;
76320;SDS011;65132;52.088;5.402;2024-01-25T14:46:21;23.10;;;6.40;;
76320;SDS011;65132;52.088;5.402;2024-01-25T14:48:47;23.25;;;7.10;;